createdAt,value
2019-06-26T14:37:20.361Z,1010.82
2019-06-26T14:38:20.331Z,1010.94
2019-06-26T14:39:20.324Z,1010.87
2019-06-26T14:40:20.487Z,1010.90
2019-06-26T14:41:20.303Z,1011.02
2019-06-26T14:42:20.326Z,1010.96
2019-06-26T14:43:20.291Z,1010.90
2019-06-26T14:44:20.282Z,1010.88
2019-06-26T14:45:20.289Z,1010.92
2019-06-26T14:46:20.265Z,1010.83
2019-06-26T14:47:20.275Z,1010.87
2019-06-26T14:48:20.256Z,1010.82
2019-06-26T14:49:20.237Z,1010.79
2019-06-26T14:50:20.230Z,1010.86
2019-06-26T14:51:20.228Z,1010.76
2019-06-26T14:52:20.218Z,1010.87
2019-06-26T14:53:20.211Z,1010.87
2019-06-26T14:54:20.191Z,1010.89
2019-06-26T14:55:20.188Z,1010.94
2019-06-26T14:56:20.189Z,1010.91
2019-06-26T14:57:20.173Z,1010.83
2019-06-26T14:58:20.172Z,1010.83
2019-06-26T14:59:20.150Z,1010.80
2019-06-26T15:00:20.134Z,1010.75
2019-06-26T15:01:20.118Z,1010.79
2019-06-26T15:02:20.108Z,1010.78
2019-06-26T15:03:20.122Z,1010.79
2019-06-26T15:04:20.110Z,1010.77
2019-06-26T15:05:20.087Z,1010.80
2019-06-26T15:06:20.100Z,1010.78
2019-06-26T15:07:20.073Z,1010.74
2019-06-26T15:08:20.069Z,1010.77
2019-06-26T15:09:20.061Z,1010.76
2019-06-26T15:10:20.075Z,1010.76
2019-06-26T15:11:20.035Z,1010.83
2019-06-26T15:12:20.022Z,1010.80
2019-06-26T15:13:20.002Z,1010.78
2019-06-26T15:14:20.026Z,1010.73
2019-06-26T15:15:20.015Z,1010.75
2019-06-26T15:16:19.997Z,1010.71
2019-06-26T15:17:19.990Z,1010.69
2019-06-26T15:18:19.965Z,1010.69
2019-06-26T15:19:19.981Z,1010.67
2019-06-26T15:20:19.986Z,1010.63
2019-06-26T15:21:19.936Z,1010.67
2019-06-26T15:22:19.939Z,1010.60
2019-06-26T15:23:19.938Z,1010.71
2019-06-26T15:24:19.920Z,1010.73
2019-06-26T15:25:19.920Z,1010.60
2019-06-26T15:26:19.923Z,1010.65
2019-06-26T15:27:19.878Z,1010.67
2019-06-26T15:28:19.858Z,1010.58
2019-06-26T15:29:19.849Z,1010.61
2019-06-26T15:30:19.858Z,1010.57
2019-06-26T15:31:19.865Z,1010.59
2019-06-26T15:32:19.830Z,1010.69
2019-06-26T15:33:19.810Z,1010.66
2019-06-26T15:34:19.826Z,1010.61
2019-06-26T15:35:19.814Z,1010.61
2019-06-26T15:36:19.803Z,1010.62
2019-06-26T15:37:19.782Z,1010.62
2019-06-26T15:38:19.799Z,1010.58
2019-06-26T15:39:19.767Z,1010.57
2019-06-26T15:40:19.765Z,1010.61
2019-06-26T15:41:19.780Z,1010.54
2019-06-26T15:42:19.743Z,1010.56
2019-06-26T15:43:19.728Z,1010.59
2019-06-26T15:44:19.716Z,1010.58
2019-06-26T15:45:20.757Z,1010.59
2019-06-26T15:46:19.695Z,1010.62
2019-06-26T15:47:19.695Z,1010.56
2019-06-26T15:48:19.665Z,1010.50
2019-06-26T15:49:19.678Z,1010.59
2019-06-26T15:50:19.654Z,1010.62
2019-06-26T15:51:19.665Z,1010.49
2019-06-26T15:52:19.647Z,1010.60
2019-06-26T15:53:19.631Z,1010.54
2019-06-26T15:54:19.656Z,1010.62
2019-06-26T15:55:19.597Z,1010.57
2019-06-26T15:56:19.603Z,1010.55
2019-06-26T15:57:19.587Z,1010.58
2019-06-26T15:58:19.591Z,1010.62
2019-06-26T15:59:19.559Z,1010.63
2019-06-26T16:00:19.562Z,1010.66
2019-06-26T16:01:19.559Z,1010.65
2019-06-26T16:02:19.530Z,1010.67
2019-06-26T16:03:19.546Z,1010.64
2019-06-26T16:04:19.510Z,1010.69
2019-06-26T16:05:19.500Z,1010.63
2019-06-26T16:06:19.482Z,1010.58
2019-06-26T16:07:19.481Z,1010.64
2019-06-26T16:08:19.481Z,1010.62
2019-06-26T16:09:19.475Z,1010.59
2019-06-26T16:10:19.462Z,1010.66
2019-06-26T16:11:19.433Z,1010.66
2019-06-26T16:12:19.433Z,1010.71
2019-06-26T16:13:19.517Z,1010.63
2019-06-26T16:14:19.426Z,1010.70
2019-06-26T16:15:19.400Z,1010.75
2019-06-26T16:16:19.433Z,1010.72
2019-06-26T16:17:19.385Z,1010.77
2019-06-26T16:18:19.416Z,1010.72
2019-06-26T16:19:19.367Z,1010.69
2019-06-26T16:20:19.346Z,1010.71
2019-06-26T16:21:19.353Z,1010.71
2019-06-26T16:22:31.639Z,1010.75
2019-06-26T16:23:20.350Z,1010.73
2019-06-26T16:24:19.413Z,1010.77
2019-06-26T16:25:19.348Z,1010.78
2019-06-26T16:26:19.300Z,1010.77
2019-06-26T16:27:19.289Z,1010.78
2019-06-26T16:28:19.282Z,1010.74
2019-06-26T16:29:19.278Z,1010.76
2019-06-26T16:30:19.263Z,1010.80
2019-06-26T16:31:19.253Z,1010.71
2019-06-26T16:32:19.221Z,1010.75
2019-06-26T16:33:19.234Z,1010.71
2019-06-26T16:34:19.220Z,1010.74
2019-06-26T16:35:19.204Z,1010.74
2019-06-26T16:36:19.202Z,1010.64
2019-06-26T16:37:19.172Z,1010.70
2019-06-26T16:38:19.174Z,1010.69
2019-06-26T16:39:19.206Z,1010.80
2019-06-26T16:40:19.224Z,1010.76
2019-06-26T16:41:19.146Z,1010.81
2019-06-26T16:42:19.124Z,1010.76
2019-06-26T16:43:19.134Z,1010.80
2019-06-26T16:44:19.175Z,1010.78
2019-06-26T16:45:19.113Z,1010.71
2019-06-26T16:46:19.084Z,1010.69
2019-06-26T16:47:19.074Z,1010.77
2019-06-26T16:48:19.063Z,1010.69
2019-06-26T16:49:19.059Z,1010.76
2019-06-26T16:50:19.066Z,1010.78
2019-06-26T16:51:19.069Z,1010.75
2019-06-26T16:52:19.039Z,1010.78
2019-06-26T16:53:19.017Z,1010.71
2019-06-26T16:54:19.010Z,1010.74
2019-06-26T16:55:19.041Z,1010.68
2019-06-26T16:56:19.018Z,1010.81
2019-06-26T16:57:19.012Z,1010.78
2019-06-26T16:58:18.959Z,1010.76
2019-06-26T16:59:18.956Z,1010.78
2019-06-26T17:00:18.952Z,1010.77
2019-06-26T17:01:18.975Z,1010.70
2019-06-26T17:02:18.920Z,1010.70
2019-06-26T17:03:18.903Z,1010.76
2019-06-26T17:04:18.930Z,1010.71
2019-06-26T17:05:18.880Z,1010.72
2019-06-26T17:06:18.901Z,1010.86
2019-06-26T17:07:18.879Z,1010.78
2019-06-26T17:08:18.865Z,1010.80
2019-06-26T17:09:18.856Z,1010.81
2019-06-26T17:10:18.845Z,1010.85
2019-06-26T17:11:18.868Z,1010.87
2019-06-26T17:12:18.811Z,1010.90
2019-06-26T17:13:18.802Z,1010.81
2019-06-26T17:14:18.794Z,1010.87
2019-06-26T17:15:18.793Z,1010.83
2019-06-26T17:16:18.784Z,1010.91
2019-06-26T17:17:18.763Z,1010.85
2019-06-26T17:18:18.767Z,1010.91
2019-06-26T17:19:18.817Z,1010.99
2019-06-26T17:20:18.758Z,1011.01
2019-06-26T17:21:18.748Z,1010.91
2019-06-26T17:22:18.719Z,1010.98
2019-06-26T17:23:18.696Z,1011.01
2019-06-26T17:24:18.699Z,1011.01
2019-06-26T17:25:18.686Z,1011.02
2019-06-26T17:26:18.710Z,1010.92
2019-06-26T17:27:18.669Z,1011.00
2019-06-26T17:28:18.653Z,1011.03
2019-06-26T17:29:18.639Z,1010.98
2019-06-26T17:30:18.641Z,1010.99
2019-06-26T17:31:18.685Z,1011.12
2019-06-26T17:32:18.642Z,1011.07
2019-06-26T17:33:18.612Z,1011.05
2019-06-26T17:34:18.590Z,1011.17
2019-06-26T17:35:18.592Z,1011.04
2019-06-26T17:36:18.569Z,1011.08
2019-06-26T17:37:18.561Z,1011.05
2019-06-26T17:38:18.551Z,1011.03
2019-06-26T17:39:18.540Z,1011.06
2019-06-26T17:40:18.553Z,1011.05
2019-06-26T17:41:18.516Z,1010.99
2019-06-26T17:42:18.504Z,1011.01
2019-06-26T17:43:18.515Z,1011.06
2019-06-26T17:44:18.472Z,1011.00
2019-06-26T17:45:18.467Z,1011.01
2019-06-26T17:46:18.453Z,1010.99
2019-06-26T17:47:18.446Z,1011.03
2019-06-26T17:48:18.579Z,1011.09
2019-06-26T17:49:18.424Z,1011.12
2019-06-26T17:50:18.417Z,1011.15
2019-06-26T17:51:18.403Z,1011.09
2019-06-26T17:52:18.394Z,1011.18
2019-06-26T17:53:22.025Z,1011.14
2019-06-26T17:54:18.378Z,1011.12
2019-06-26T17:55:18.356Z,1011.11
2019-06-26T17:56:18.379Z,1011.07
2019-06-26T17:57:18.359Z,1011.16
2019-06-26T17:58:18.340Z,1011.14
2019-06-26T17:59:18.342Z,1011.12
2019-06-26T18:00:18.320Z,1011.18
2019-06-26T18:01:18.309Z,1011.16
2019-06-26T18:02:18.287Z,1011.14
2019-06-26T18:03:18.268Z,1011.18
2019-06-26T18:04:18.278Z,1011.13
2019-06-26T18:05:18.347Z,1011.18
2019-06-26T18:06:18.256Z,1011.20
2019-06-26T18:07:18.230Z,1011.19
2019-06-26T18:08:18.234Z,1011.21
2019-06-26T18:09:18.331Z,1011.23
2019-06-26T18:10:18.199Z,1011.24
2019-06-26T18:11:18.179Z,1011.33
2019-06-26T18:12:18.184Z,1011.33
2019-06-26T18:13:18.170Z,1011.29
2019-06-26T18:14:18.214Z,1011.28
2019-06-26T18:15:18.155Z,1011.26
2019-06-26T18:16:18.170Z,1011.30
2019-06-26T18:17:22.443Z,1011.33
2019-06-26T18:18:18.225Z,1011.40
2019-06-26T18:19:18.112Z,1011.39
2019-06-26T18:20:18.100Z,1011.36
2019-06-26T18:21:18.135Z,1011.37
2019-06-26T18:22:18.085Z,1011.43
2019-06-26T18:23:18.053Z,1011.40
2019-06-26T18:24:18.062Z,1011.41
2019-06-26T18:25:18.042Z,1011.44
2019-06-26T18:26:18.048Z,1011.51
2019-06-26T18:27:18.027Z,1011.44
2019-06-26T18:28:18.004Z,1011.43
2019-06-26T18:29:17.994Z,1011.40
2019-06-26T18:30:18.005Z,1011.40
2019-06-26T18:31:17.987Z,1011.46
2019-06-26T18:32:17.976Z,1011.47
2019-06-26T18:33:17.959Z,1011.47
2019-06-26T18:34:17.956Z,1011.47
2019-06-26T18:35:17.938Z,1011.47
2019-06-26T18:36:17.926Z,1011.57
2019-06-26T18:37:17.930Z,1011.55
2019-06-26T18:38:17.921Z,1011.55
2019-06-26T18:39:17.906Z,1011.48
2019-06-26T18:40:17.909Z,1011.49
2019-06-26T18:41:18.738Z,1011.51
2019-06-26T18:42:17.847Z,1011.57
2019-06-26T18:43:17.859Z,1011.54
2019-06-26T18:44:17.828Z,1011.60
2019-06-26T18:45:17.821Z,1011.49
2019-06-26T18:46:17.821Z,1011.51
2019-06-26T18:47:17.809Z,1011.55
2019-06-26T18:48:17.802Z,1011.47
2019-06-26T18:49:17.779Z,1011.47
2019-06-26T18:50:17.770Z,1011.48
2019-06-26T18:51:17.803Z,1011.52
2019-06-26T18:52:17.747Z,1011.57
2019-06-26T18:53:17.730Z,1011.56
2019-06-26T18:54:17.721Z,1011.61
2019-06-26T18:55:17.713Z,1011.63
2019-06-26T18:56:17.701Z,1011.61
2019-06-26T18:57:17.699Z,1011.61
2019-06-26T18:58:17.704Z,1011.56
2019-06-26T18:59:17.685Z,1011.58
2019-06-26T19:00:17.670Z,1011.61
2019-06-26T19:01:17.653Z,1011.57
2019-06-26T19:02:17.648Z,1011.56
2019-06-26T19:03:17.640Z,1011.49
2019-06-26T19:04:17.613Z,1011.60
2019-06-26T19:05:17.601Z,1011.61
2019-06-26T19:06:17.616Z,1011.66
2019-06-26T19:07:17.583Z,1011.68
2019-06-26T19:08:17.576Z,1011.62
2019-06-26T19:09:17.563Z,1011.70
2019-06-26T19:10:17.606Z,1011.67
2019-06-26T19:11:17.549Z,1011.70
2019-06-26T19:12:17.537Z,1011.68
2019-06-26T19:13:20.224Z,1011.72
2019-06-26T19:14:17.504Z,1011.78
2019-06-26T19:15:17.508Z,1011.65
2019-06-26T19:16:17.505Z,1011.79
2019-06-26T19:17:17.489Z,1011.84
2019-06-26T19:18:17.483Z,1011.82
2019-06-26T19:19:17.446Z,1011.85
2019-06-26T19:20:17.448Z,1011.81
2019-06-26T19:21:17.427Z,1011.82
2019-06-26T19:22:17.450Z,1011.79
2019-06-26T19:23:17.417Z,1011.82
2019-06-26T19:24:17.397Z,1011.76
2019-06-26T19:25:17.397Z,1011.80
2019-06-26T19:26:17.368Z,1011.78
2019-06-26T19:27:17.381Z,1011.82
2019-06-26T19:28:17.349Z,1011.89
2019-06-26T19:29:17.380Z,1011.84
2019-06-26T19:30:17.343Z,1011.91
2019-06-26T19:31:17.331Z,1011.90
2019-06-26T19:32:17.336Z,1011.92
2019-06-26T19:33:17.329Z,1011.92
2019-06-26T19:34:17.289Z,1011.93
2019-06-26T19:35:19.619Z,1011.99
2019-06-26T19:36:17.303Z,1012.02
2019-06-26T19:37:17.270Z,1012.01
2019-06-26T19:38:17.287Z,1011.99
2019-06-26T19:39:20.531Z,1012.01
2019-06-26T19:40:17.230Z,1012.07
2019-06-26T19:41:17.222Z,1012.07
2019-06-26T19:42:17.214Z,1012.10
2019-06-26T19:43:17.194Z,1012.13
2019-06-26T19:44:17.196Z,1012.17
2019-06-26T19:45:17.229Z,1012.18
2019-06-26T19:46:17.486Z,1012.12
2019-06-26T19:47:17.152Z,1012.11
2019-06-26T19:48:17.158Z,1012.13
2019-06-26T19:49:17.135Z,1012.11
2019-06-26T19:50:17.137Z,1012.15
2019-06-26T19:51:17.134Z,1012.11
2019-06-26T19:52:17.095Z,1012.29
2019-06-26T19:53:17.098Z,1012.25
2019-06-26T19:54:26.719Z,1012.29
2019-06-26T19:55:18.125Z,1012.26
2019-06-26T19:56:20.101Z,1012.26
2019-06-26T19:57:17.036Z,1012.27
2019-06-26T19:58:21.318Z,1012.29
2019-06-26T19:59:17.037Z,1012.40
2019-06-26T20:00:17.019Z,1012.36
2019-06-26T20:01:16.997Z,1012.36
2019-06-26T20:02:17.000Z,1012.33
2019-06-26T20:03:16.989Z,1012.41
2019-06-26T20:04:16.966Z,1012.40
2019-06-26T20:05:16.957Z,1012.38
2019-06-26T20:06:16.936Z,1012.39
2019-06-26T20:07:16.960Z,1012.38
2019-06-26T20:08:16.940Z,1012.42
2019-06-26T20:09:16.907Z,1012.41
2019-06-26T20:10:16.917Z,1012.37
2019-06-26T20:11:16.900Z,1012.43
2019-06-26T20:12:16.876Z,1012.47
2019-06-26T20:13:16.877Z,1012.45
2019-06-26T20:14:16.871Z,1012.50
2019-06-26T20:15:16.871Z,1012.49
2019-06-26T20:16:16.859Z,1012.47
2019-06-26T20:17:16.826Z,1012.50
2019-06-26T20:18:16.822Z,1012.51
2019-06-26T20:19:16.810Z,1012.54
2019-06-26T20:20:16.809Z,1012.51
2019-06-26T20:21:16.799Z,1012.53
2019-06-26T20:22:16.780Z,1012.50
2019-06-26T20:23:16.771Z,1012.48
2019-06-26T20:24:16.779Z,1012.53
2019-06-26T20:25:16.753Z,1012.51
2019-06-26T20:26:16.720Z,1012.58
2019-06-26T20:27:16.751Z,1012.55
2019-06-26T20:28:16.701Z,1012.51
2019-06-26T20:29:16.705Z,1012.52
2019-06-26T20:30:16.704Z,1012.46
2019-06-26T20:31:16.729Z,1012.46
2019-06-26T20:32:16.674Z,1012.45
2019-06-26T20:33:16.662Z,1012.50
2019-06-26T20:34:16.666Z,1012.51
2019-06-26T20:35:16.632Z,1012.52
2019-06-26T20:36:16.625Z,1012.59
2019-06-26T20:37:16.685Z,1012.53
2019-06-26T20:38:16.605Z,1012.57
2019-06-26T20:39:23.633Z,1012.55
2019-06-26T20:40:16.563Z,1012.47
2019-06-26T20:41:16.564Z,1012.52
2019-06-26T20:42:16.560Z,1012.50
2019-06-26T20:43:16.544Z,1012.54
2019-06-26T20:44:16.524Z,1012.49
2019-06-26T20:45:16.524Z,1012.51
2019-06-26T20:46:16.519Z,1012.49
2019-06-26T20:47:16.495Z,1012.59
2019-06-26T20:48:16.494Z,1012.58
2019-06-26T20:49:16.478Z,1012.56
2019-06-26T20:50:16.465Z,1012.54
2019-06-26T20:51:16.455Z,1012.60
2019-06-26T20:52:16.449Z,1012.58
2019-06-26T20:53:16.425Z,1012.62
2019-06-26T20:54:16.426Z,1012.61
2019-06-26T20:55:16.414Z,1012.53
2019-06-26T20:56:16.405Z,1012.58
2019-06-26T20:57:16.393Z,1012.62
2019-06-26T20:58:16.387Z,1012.59
2019-06-26T20:59:16.370Z,1012.56
2019-06-26T21:00:16.367Z,1012.62
2019-06-26T21:01:16.352Z,1012.60
2019-06-26T21:02:16.342Z,1012.64
2019-06-26T21:03:16.317Z,1012.66
2019-06-26T21:04:16.311Z,1012.63
2019-06-26T21:05:16.308Z,1012.55
2019-06-26T21:06:16.330Z,1012.55
2019-06-26T21:07:16.282Z,1012.56
2019-06-26T21:08:16.270Z,1012.53
2019-06-26T21:09:16.279Z,1012.55
2019-06-26T21:10:16.247Z,1012.62
2019-06-26T21:11:16.230Z,1012.57
2019-06-26T21:12:16.240Z,1012.55
2019-06-26T21:13:16.223Z,1012.64
2019-06-26T21:14:16.200Z,1012.58
2019-06-26T21:15:16.191Z,1012.55
2019-06-26T21:16:16.183Z,1012.61
2019-06-26T21:17:16.181Z,1012.66
2019-06-26T21:18:16.171Z,1012.57
2019-06-26T21:19:16.154Z,1012.61
2019-06-26T21:20:16.130Z,1012.59
2019-06-26T21:21:16.135Z,1012.66
2019-06-26T21:22:16.154Z,1012.62
2019-06-26T21:23:18.687Z,1012.65
2019-06-26T21:24:16.106Z,1012.65
2019-06-26T21:25:18.835Z,1012.70
2019-06-26T21:26:16.095Z,1012.65
2019-06-26T21:27:16.062Z,1012.64
2019-06-26T21:28:16.054Z,1012.60
2019-06-26T21:29:16.060Z,1012.56
2019-06-26T21:30:16.033Z,1012.57
2019-06-26T21:31:16.024Z,1012.59
2019-06-26T21:32:16.015Z,1012.61
2019-06-26T21:33:16.017Z,1012.61
2019-06-26T21:34:15.996Z,1012.64
2019-06-26T21:35:15.987Z,1012.60
2019-06-26T21:36:15.994Z,1012.55
2019-06-26T21:37:15.953Z,1012.56
2019-06-26T21:38:15.967Z,1012.57
2019-06-26T21:39:15.954Z,1012.58
2019-06-26T21:40:15.924Z,1012.59
2019-06-26T21:41:15.933Z,1012.60
2019-06-26T21:42:15.927Z,1012.55
2019-06-26T21:43:15.954Z,1012.64
2019-06-26T21:44:15.884Z,1012.63
2019-06-26T21:45:19.159Z,1012.62
2019-06-26T21:46:15.855Z,1012.64
2019-06-26T21:47:15.846Z,1012.59
2019-06-26T21:48:15.855Z,1012.74
2019-06-26T21:49:15.853Z,1012.65
2019-06-26T21:50:15.817Z,1012.71
2019-06-26T21:51:15.814Z,1012.67
2019-06-26T21:52:15.820Z,1012.66
2019-06-26T21:53:15.809Z,1012.67
2019-06-26T21:54:15.776Z,1012.70
2019-06-26T21:55:15.758Z,1012.69
2019-06-26T21:56:15.747Z,1012.69
2019-06-26T21:57:15.737Z,1012.74
2019-06-26T21:58:15.760Z,1012.74
2019-06-26T21:59:15.737Z,1012.74
2019-06-26T22:00:15.800Z,1012.79
2019-06-26T22:01:15.698Z,1012.67
2019-06-26T22:02:15.688Z,1012.71
2019-06-26T22:03:15.668Z,1012.66
2019-06-26T22:04:15.679Z,1012.76
2019-06-26T22:05:15.672Z,1012.75
2019-06-26T22:06:15.654Z,1012.82
2019-06-26T22:07:15.648Z,1012.82
2019-06-26T22:08:15.632Z,1012.84
2019-06-26T22:09:15.649Z,1012.84
2019-06-26T22:10:15.601Z,1012.88
2019-06-26T22:11:15.601Z,1012.89
2019-06-26T22:12:15.596Z,1012.92
2019-06-26T22:13:15.562Z,1012.90
2019-06-26T22:14:15.565Z,1012.97
2019-06-26T22:15:15.563Z,1012.94
2019-06-26T22:16:15.540Z,1013.01
2019-06-26T22:17:15.530Z,1013.05
2019-06-26T22:18:15.514Z,1013.08
2019-06-26T22:19:15.512Z,1013.09
2019-06-26T22:20:15.510Z,1013.01
2019-06-26T22:21:15.481Z,1013.08
2019-06-26T22:22:15.471Z,1013.13
2019-06-26T22:23:15.460Z,1013.15
2019-06-26T22:24:15.441Z,1013.16
2019-06-26T22:25:15.484Z,1013.06
2019-06-26T22:26:15.422Z,1013.20
2019-06-26T22:27:15.412Z,1013.14
2019-06-26T22:28:15.441Z,1013.10
2019-06-26T22:29:15.403Z,1013.16
2019-06-26T22:30:15.442Z,1013.16
2019-06-26T22:31:15.372Z,1013.11
2019-06-26T22:32:15.353Z,1013.17
2019-06-26T22:33:15.364Z,1013.13
2019-06-26T22:34:15.342Z,1013.22
2019-06-26T22:35:15.343Z,1013.23
2019-06-26T22:36:15.314Z,1013.25
2019-06-26T22:37:15.312Z,1013.27
2019-06-26T22:38:15.316Z,1013.32
2019-06-26T22:39:15.274Z,1013.26
2019-06-26T22:40:15.286Z,1013.25
2019-06-26T22:41:15.276Z,1013.32
2019-06-26T22:42:15.243Z,1013.34
2019-06-26T22:43:15.250Z,1013.35
2019-06-26T22:44:15.236Z,1013.47
2019-06-26T22:45:15.214Z,1013.44
2019-06-26T22:46:15.193Z,1013.40
2019-06-26T22:47:15.203Z,1013.41
2019-06-26T22:48:15.199Z,1013.41
2019-06-26T22:49:15.182Z,1013.46
2019-06-26T22:50:15.167Z,1013.46
2019-06-26T22:51:15.177Z,1013.47
2019-06-26T22:52:15.145Z,1013.50
2019-06-26T22:53:15.130Z,1013.44
2019-06-26T22:54:15.120Z,1013.42
2019-06-26T22:55:15.129Z,1013.47
2019-06-26T22:56:15.095Z,1013.51
2019-06-26T22:57:15.114Z,1013.48
2019-06-26T22:58:15.082Z,1013.47
2019-06-26T22:59:15.069Z,1013.52
2019-06-26T23:00:15.056Z,1013.42
2019-06-26T23:01:15.069Z,1013.45
2019-06-26T23:02:15.052Z,1013.44
2019-06-26T23:03:15.036Z,1013.40
2019-06-26T23:04:15.029Z,1013.46
2019-06-26T23:05:15.009Z,1013.42
2019-06-26T23:06:14.989Z,1013.53
2019-06-26T23:07:14.982Z,1013.49
2019-06-26T23:08:14.978Z,1013.44
2019-06-26T23:09:14.972Z,1013.46
2019-06-26T23:10:15.000Z,1013.54
2019-06-26T23:11:14.948Z,1013.52
2019-06-26T23:12:14.960Z,1013.50
2019-06-26T23:13:14.921Z,1013.47
2019-06-26T23:14:14.888Z,1013.44
2019-06-26T23:15:14.893Z,1013.47
2019-06-26T23:16:14.878Z,1013.44
2019-06-26T23:17:14.871Z,1013.50
2019-06-26T23:18:14.890Z,1013.47
2019-06-26T23:19:15.116Z,1013.53
2019-06-26T23:20:14.829Z,1013.48
2019-06-26T23:21:14.832Z,1013.50
2019-06-26T23:22:14.809Z,1013.56
2019-06-26T23:23:14.812Z,1013.52
2019-06-26T23:24:14.821Z,1013.55
2019-06-26T23:25:14.815Z,1013.53
2019-06-26T23:26:24.044Z,1013.55
2019-06-26T23:27:15.771Z,1013.55
2019-06-26T23:28:14.750Z,1013.59
2019-06-26T23:29:14.730Z,1013.54
2019-06-26T23:30:14.734Z,1013.48
2019-06-26T23:31:14.720Z,1013.54
2019-06-26T23:32:14.700Z,1013.58
2019-06-26T23:33:14.703Z,1013.51
2019-06-26T23:34:14.694Z,1013.49
2019-06-26T23:35:14.681Z,1013.55
2019-06-26T23:36:14.660Z,1013.55
2019-06-26T23:37:14.644Z,1013.55
2019-06-26T23:38:14.641Z,1013.57
2019-06-26T23:39:14.654Z,1013.57
2019-06-26T23:40:14.621Z,1013.66
2019-06-26T23:41:17.888Z,1013.63
2019-06-26T23:42:14.597Z,1013.55
2019-06-26T23:43:14.585Z,1013.57
2019-06-26T23:44:14.586Z,1013.60
2019-06-26T23:45:14.562Z,1013.62
2019-06-26T23:46:14.554Z,1013.71
2019-06-26T23:47:14.554Z,1013.64
2019-06-26T23:48:14.545Z,1013.66
2019-06-26T23:49:14.513Z,1013.70
2019-06-26T23:50:14.502Z,1013.60
2019-06-26T23:51:14.502Z,1013.65
2019-06-26T23:52:14.484Z,1013.74
2019-06-26T23:53:14.473Z,1013.75
2019-06-26T23:54:14.452Z,1013.79
2019-06-26T23:55:14.456Z,1013.70
2019-06-26T23:56:14.441Z,1013.66
2019-06-26T23:57:14.435Z,1013.75
2019-06-26T23:58:14.413Z,1013.74
2019-06-26T23:59:14.407Z,1013.79
